Time;durP1;ratioP1;P1;durP2;ratioP2;P2;SDS_P1;SDS_P2;PMS_P1;PMS_P2;Temp;Humidity;BMP_temperature;BMP_pressure;BME280_temperature;BME280_humidity;BME280_pressure;Samples;Min_cycle;Max_cycle;Signal;HPM_P1;HPM_P2
2021/07/30 00:02:01;;;;;;;9.13;5.37;;;19.10;55.90;;;;;;5012832;28;20227;-92
2021/07/30 00:04:26;;;;;;;8.87;4.57;;;19.20;55.90;;;;;;5000383;28;20234;-92
2021/07/30 00:06:52;;;;;;;8.03;4.87;;;19.20;56.10;;;;;;5001267;28;20183;-92
2021/07/30 00:09:18;;;;;;;6.30;4.30;;;19.10;56.30;;;;;;5000391;28;20175;-92
2021/07/30 00:11:44;;;;;;;10.43;5.20;;;19.10;56.50;;;;;;4998602;28;20215;-92
2021/07/30 00:14:10;;;;;;;7.20;4.53;;;19.00;56.60;;;;;;4998292;28;20221;-92
2021/07/30 00:16:36;;;;;;;11.00;4.97;;;18.90;56.90;;;;;;4996349;28;20414;-92
2021/07/30 00:19:02;;;;;;;14.00;6.63;;;19.00;57.00;;;;;;4995415;28;20190;-92
2021/07/30 00:21:28;;;;;;;16.38;5.60;;;19.00;56.90;;;;;;4996672;28;20608;-92
2021/07/30 00:23:54;;;;;;;13.33;5.07;;;19.00;57.00;;;;;;5000704;28;20183;-92
2021/07/30 00:26:21;;;;;;;5.70;4.90;;;19.00;57.30;;;;;;5001894;28;20429;-92
2021/07/30 00:28:46;;;;;;;22.00;5.75;;;18.90;57.30;;;;;;5000650;28;20594;-92
2021/07/30 00:31:12;;;;;;;9.97;5.70;;;18.90;57.50;;;;;;4999056;28;20183;-92
2021/07/30 00:33:38;;;;;;;6.67;4.50;;;18.80;57.70;;;;;;4997236;28;20576;-92
2021/07/30 00:36:04;;;;;;;16.03;4.63;;;18.80;57.90;;;;;;4995079;28;20175;-92
2021/07/30 00:38:29;;;;;;;11.90;5.07;;;18.90;57.70;;;;;;4999303;28;20179;-92
2021/07/30 00:40:55;;;;;;;4.20;3.80;;;19.00;57.50;;;;;;4997929;28;20264;-93
2021/07/30 00:43:21;;;;;;;7.50;4.70;;;19.10;57.40;;;;;;4994917;28;20290;-92
2021/07/30 00:45:47;;;;;;;18.07;4.97;;;18.90;57.40;;;;;;4996479;28;20194;-93
2021/07/30 00:48:15;;;;;;;17.30;5.68;;;18.90;57.70;;;;;;4995022;28;20414;-92
2021/07/30 00:50:42;;;;;;;6.57;4.15;;;18.90;57.70;;;;;;4995334;28;20252;-92
2021/07/30 00:53:08;;;;;;;6.63;4.28;;;19.00;57.50;;;;;;4997343;28;20210;-92
2021/07/30 00:55:34;;;;;;;10.23;5.10;;;18.90;57.40;;;;;;4987737;28;20199;-92
2021/07/30 00:58:01;;;;;;;4.87;4.17;;;18.70;58.00;;;;;;4975598;28;20594;-92
2021/07/30 01:00:28;;;;;;;7.93;4.45;;;18.80;58.30;;;;;;4975401;28;20546;-92
2021/07/30 01:02:54;;;;;;;9.48;5.40;;;18.70;58.50;;;;;;4975631;28;20215;-92
2021/07/30 01:05:20;;;;;;;11.73;5.40;;;18.80;58.50;;;;;;4982666;28;20251;-94
2021/07/30 01:07:46;;;;;;;7.18;4.22;;;18.80;58.40;;;;;;4986134;28;20192;-92
2021/07/30 01:10:12;;;;;;;7.50;4.77;;;18.90;58.20;;;;;;4974679;28;20190;-92
2021/07/30 01:12:38;;;;;;;11.90;4.73;;;18.90;58.10;;;;;;4974550;28;20230;-92
2021/07/30 01:15:05;;;;;;;8.17;4.50;;;18.90;58.00;;;;;;4975208;28;20420;-93
2021/07/30 01:17:31;;;;;;;10.27;5.00;;;18.90;58.00;;;;;;4979017;28;20788;-92
2021/07/30 01:19:56;;;;;;;8.97;5.20;;;18.80;58.10;;;;;;4974948;28;20191;-92
2021/07/30 01:22:24;;;;;;;9.47;5.20;;;18.80;58.30;;;;;;4974770;28;20286;-92
2021/07/30 01:24:54;;;;;;;7.30;4.45;;;18.70;58.60;;;;;;4974807;28;20188;-92
2021/07/30 01:27:21;;;;;;;12.52;4.47;;;18.70;58.70;;;;;;4975146;28;20215;-92
2021/07/30 01:29:47;;;;;;;10.45;5.20;;;18.70;58.70;;;;;;4976556;28;20200;-92
2021/07/30 01:32:14;;;;;;;9.93;4.95;;;18.80;58.50;;;;;;4974427;28;20214;-92
2021/07/30 01:34:42;;;;;;;8.80;4.55;;;19.00;58.30;;;;;;4978067;28;20231;-92
2021/07/30 01:37:11;;;;;;;7.75;4.75;;;19.10;57.90;;;;;;4983904;28;20211;-92
2021/07/30 01:39:38;;;;;;;12.57;6.60;;;19.10;57.60;;;;;;4989448;28;20176;-92
2021/07/30 01:42:05;;;;;;;9.82;4.55;;;18.90;57.90;;;;;;4975487;28;20199;-92
2021/07/30 01:44:30;;;;;;;7.53;4.70;;;18.70;58.50;;;;;;4975093;28;20180;-94
2021/07/30 01:46:56;;;;;;;11.10;5.63;;;18.80;58.70;;;;;;4975223;28;20192;-92
2021/07/30 01:49:22;;;;;;;6.07;4.10;;;18.90;58.60;;;;;;4976033;28;20766;-92
2021/07/30 01:51:48;;;;;;;10.00;4.85;;;19.00;58.30;;;;;;4974420;28;20259;-92
2021/07/30 01:54:14;;;;;;;13.10;4.67;;;19.10;58.00;;;;;;4975891;28;20208;-92
2021/07/30 01:56:43;;;;;;;12.98;4.07;;;19.00;57.60;;;;;;4991384;28;20415;-92
2021/07/30 01:59:09;;;;;;;5.90;4.38;;;18.90;57.70;;;;;;4994520;28;20587;-92
2021/07/30 02:01:35;;;;;;;14.90;4.50;;;18.70;58.90;;;;;;4994691;28;20631;-92
2021/07/30 02:04:01;;;;;;;15.53;4.40;;;18.60;58.90;;;;;;4994845;28;20210;-93
2021/07/30 02:06:26;;;;;;;6.60;4.53;;;18.60;59.10;;;;;;4997201;28;20423;-92
2021/07/30 02:08:52;;;;;;;8.33;4.17;;;18.40;59.50;;;;;;4994922;28;20183;-92
2021/07/30 02:11:18;;;;;;;16.57;6.30;;;18.40;59.80;;;;;;5006875;28;20235;-90
2021/07/30 02:16:28;;;;;;;11.68;4.93;;;18.40;59.90;;;;;;4995745;28;20175;-92
2021/07/30 02:18:54;;;;;;;12.90;4.97;;;18.40;60.20;;;;;;4994372;28;20174;-92
2021/07/30 02:21:20;;;;;;;7.10;4.80;;;18.40;60.30;;;;;;4995975;28;20771;-92
2021/07/30 02:23:46;;;;;;;15.17;5.07;;;18.60;60.30;;;;;;4993528;28;20446;-92
2021/07/30 02:26:12;;;;;;;7.90;4.22;;;18.60;60.10;;;;;;4995169;28;20925;-92
2021/07/30 02:28:38;;;;;;;8.47;4.30;;;18.60;59.90;;;;;;4996727;28;20237;-93
2021/07/30 02:31:03;;;;;;;5.73;4.53;;;18.50;60.20;;;;;;5003757;28;20856;-92
2021/07/30 02:33:29;;;;;;;10.10;5.37;;;18.50;60.40;;;;;;4993493;28;20265;-92
2021/07/30 02:35:55;;;;;;;7.10;4.53;;;18.50;60.50;;;;;;4993562;28;20202;-93
2021/07/30 02:38:21;;;;;;;8.43;4.43;;;18.70;60.40;;;;;;4993943;28;20202;-92
2021/07/30 02:40:46;;;;;;;10.73;5.33;;;18.80;60.10;;;;;;4993108;28;20663;-92
2021/07/30 02:43:12;;;;;;;8.17;4.60;;;18.70;60.00;;;;;;4993098;28;20217;-92
2021/07/30 02:45:39;;;;;;;8.05;4.15;;;18.60;60.20;;;;;;4994114;28;20214;-92
2021/07/30 02:48:05;;;;;;;10.73;5.10;;;18.60;60.20;;;;;;4993469;28;20179;-92
2021/07/30 02:50:31;;;;;;;7.93;5.13;;;18.40;60.70;;;;;;4994274;28;20269;-92
2021/07/30 02:52:56;;;;;;;10.70;5.63;;;18.40;61.10;;;;;;4994448;28;20258;-93
2021/07/30 02:55:22;;;;;;;12.43;5.70;;;18.30;61.20;;;;;;4992836;28;20175;-92
2021/07/30 02:57:48;;;;;;;10.37;4.90;;;18.40;61.50;;;;;;4994382;28;20183;-92
2021/07/30 03:00:14;;;;;;;8.30;4.90;;;18.60;61.10;;;;;;4992848;28;20179;-93
2021/07/30 03:02:39;;;;;;;13.43;5.60;;;18.60;60.80;;;;;;4992836;28;20199;-92
2021/07/30 03:05:06;;;;;;;10.60;4.37;;;18.50;60.80;;;;;;4993841;28;20472;-91
2021/07/30 03:07:31;;;;;;;7.88;4.53;;;18.50;61.10;;;;;;4993388;28;20255;-92
2021/07/30 03:09:57;;;;;;;7.47;4.23;;;18.40;61.20;;;;;;4993443;28;20182;-91
2021/07/30 03:12:23;;;;;;;7.27;4.77;;;18.50;61.30;;;;;;4993729;28;20199;-91
2021/07/30 03:14:49;;;;;;;10.10;5.20;;;18.50;61.20;;;;;;4992772;28;20269;-91
2021/07/30 03:17:14;;;;;;;11.73;5.13;;;18.40;61.40;;;;;;5009192;28;20183;-91
2021/07/30 03:19:40;;;;;;;9.03;5.20;;;18.20;61.80;;;;;;4994242;28;20179;-91
2021/07/30 03:22:06;;;;;;;11.30;4.43;;;18.20;62.00;;;;;;4994008;28;20202;-91
2021/07/30 03:24:31;;;;;;;7.37;4.40;;;18.30;62.00;;;;;;4994622;28;20179;-91
2021/07/30 03:26:57;;;;;;;11.43;5.17;;;18.40;61.80;;;;;;5012693;28;20186;-90
2021/07/30 03:29:23;;;;;;;12.07;4.97;;;18.30;61.80;;;;;;4998255;28;20217;-92
2021/07/30 03:31:49;;;;;;;6.60;5.10;;;18.40;61.80;;;;;;4999397;28;20526;-92
2021/07/30 03:34:18;;;;;;;14.68;4.90;;;18.30;61.70;;;;;;4999406;28;20207;-92
2021/07/30 03:36:44;;;;;;;10.50;5.45;;;18.30;62.00;;;;;;4999614;28;20259;-91
2021/07/30 03:39:10;;;;;;;9.93;5.97;;;18.30;62.10;;;;;;5007957;28;20229;-92
2021/07/30 03:41:37;;;;;;;17.80;5.55;;;18.30;62.20;;;;;;5009680;28;20214;-91
2021/07/30 03:44:03;;;;;;;9.32;4.55;;;18.40;61.90;;;;;;5006602;28;20198;-91
2021/07/30 03:46:29;;;;;;;12.77;5.65;;;18.50;61.60;;;;;;5005496;28;20245;-92
2021/07/30 03:48:54;;;;;;;11.07;5.20;;;18.50;61.70;;;;;;5006954;28;20671;-91
2021/07/30 03:51:20;;;;;;;8.60;5.30;;;18.50;61.50;;;;;;5002906;28;20183;-91
2021/07/30 03:53:46;;;;;;;9.52;5.32;;;18.50;61.40;;;;;;4995980;28;20211;-91
2021/07/30 03:56:13;;;;;;;12.93;5.30;;;18.60;61.50;;;;;;4995757;28;20175;-91
2021/07/30 03:58:40;;;;;;;10.40;5.30;;;18.60;61.70;;;;;;4996296;28;20545;-91
2021/07/30 04:01:08;;;;;;;12.65;4.47;;;18.60;62.00;;;;;;4996061;28;20701;-92
2021/07/30 04:03:33;;;;;;;8.50;4.97;;;18.60;61.70;;;;;;4995427;28;20214;-91
2021/07/30 04:06:01;;;;;;;6.20;4.80;;;18.70;61.80;;;;;;5000101;28;20191;-91
2021/07/30 04:08:27;;;;;;;10.52;5.03;;;18.60;61.70;;;;;;5001731;28;20190;-91
2021/07/30 04:10:53;;;;;;;10.10;5.50;;;18.60;61.90;;;;;;5000174;28;20179;-91
2021/07/30 04:13:19;;;;;;;8.37;5.30;;;18.60;62.00;;;;;;5002144;28;20548;-91
2021/07/30 04:15:44;;;;;;;5.53;4.20;;;18.50;62.20;;;;;;5001909;28;20187;-91
2021/07/30 04:18:10;;;;;;;7.40;5.13;;;18.50;62.50;;;;;;5002690;28;20207;-92
2021/07/30 04:20:39;;;;;;;17.50;5.37;;;18.40;62.80;;;;;;5007668;28;20182;-91
2021/07/30 04:23:05;;;;;;;8.02;5.55;;;18.40;62.80;;;;;;5015428;28;20207;-92
2021/07/30 04:25:31;;;;;;;14.43;6.20;;;18.40;62.90;;;;;;4999739;28;20210;-92
2021/07/30 04:27:57;;;;;;;10.60;4.97;;;18.40;63.00;;;;;;4996893;28;20465;-91
2021/07/30 04:30:23;;;;;;;14.17;5.10;;;18.30;63.20;;;;;;4996330;28;20183;-91
2021/07/30 04:32:50;;;;;;;8.57;4.80;;;18.30;63.20;;;;;;4996381;28;20209;-91
2021/07/30 04:35:15;;;;;;;12.43;5.65;;;18.30;63.20;;;;;;4997450;28;20187;-91
2021/07/30 04:37:41;;;;;;;9.90;6.10;;;18.30;63.50;;;;;;4996637;28;20167;-91
2021/07/30 04:40:07;;;;;;;9.80;5.00;;;18.30;63.50;;;;;;5000179;28;20843;-92
2021/07/30 04:42:33;;;;;;;11.00;4.87;;;18.30;63.60;;;;;;4996912;28;20202;-91
2021/07/30 04:44:59;;;;;;;12.57;5.33;;;18.30;63.50;;;;;;4995473;28;20438;-91
2021/07/30 04:47:25;;;;;;;10.82;5.35;;;18.40;63.60;;;;;;4999622;28;20318;-91
2021/07/30 04:49:51;;;;;;;13.50;5.27;;;18.40;63.40;;;;;;4995056;28;20270;-91
2021/07/30 04:52:17;;;;;;;11.10;5.80;;;18.40;63.40;;;;;;4996370;28;20438;-92
2021/07/30 04:54:42;;;;;;;15.93;5.90;;;18.30;63.30;;;;;;4995925;28;20214;-91
2021/07/30 04:57:09;;;;;;;14.40;7.90;;;18.20;63.70;;;;;;4995091;28;20187;-91
2021/07/30 04:59:35;;;;;;;9.73;5.25;;;18.30;63.70;;;;;;4995174;28;20186;-91
2021/07/30 05:02:00;;;;;;;8.10;5.93;;;18.40;63.20;;;;;;4994445;28;20588;-91
2021/07/30 05:04:26;;;;;;;10.10;6.10;;;18.70;63.10;;;;;;4995025;28;20920;-91
2021/07/30 05:06:52;;;;;;;9.13;5.43;;;18.80;62.70;;;;;;4997231;28;20654;-91
2021/07/30 05:09:18;;;;;;;14.47;5.70;;;18.80;62.60;;;;;;4996770;28;20185;-91
2021/07/30 05:11:43;;;;;;;15.43;6.90;;;19.00;62.10;;;;;;4996939;28;20207;-91
2021/07/30 05:14:09;;;;;;;12.00;5.37;;;19.00;62.00;;;;;;5010732;28;20230;-91
2021/07/30 05:16:35;;;;;;;11.87;5.47;;;18.90;61.90;;;;;;5009625;28;20175;-92
2021/07/30 05:19:01;;;;;;;13.63;6.10;;;19.00;62.00;;;;;;5002094;28;20418;-91
2021/07/30 05:21:27;;;;;;;9.80;6.00;;;19.00;61.70;;;;;;4994881;28;20418;-91
2021/07/30 05:23:53;;;;;;;14.33;6.00;;;19.00;61.90;;;;;;4998104;28;20659;-91
2021/07/30 05:26:19;;;;;;;8.10;4.37;;;19.10;61.90;;;;;;5010408;28;20270;-91
2021/07/30 05:28:44;;;;;;;8.67;5.00;;;19.10;61.80;;;;;;5000909;28;20446;-92
2021/07/30 05:31:17;;;;;;;7.37;4.80;;;19.20;61.60;;;;;;5000103;28;20473;-91
2021/07/30 05:33:43;;;;;;;7.28;5.28;;;19.20;61.40;;;;;;4996739;28;20466;-92
2021/07/30 05:36:18;;;;;;;11.60;5.35;;;19.20;61.50;;;;;;4994723;28;20202;-91
2021/07/30 05:38:44;;;;;;;6.03;4.22;;;19.40;61.10;;;;;;4996822;28;20175;-91
2021/07/30 05:41:11;;;;;;;9.70;4.55;;;19.60;60.70;;;;;;4995676;28;20176;-91
2021/07/30 05:43:40;;;;;;;8.32;4.35;;;19.70;60.70;;;;;;4994999;28;20207;-90
2021/07/30 05:46:07;;;;;;;9.32;5.35;;;19.70;60.30;;;;;;4994363;28;20187;-91
2021/07/30 05:48:33;;;;;;;9.20;4.95;;;19.70;60.00;;;;;;4994917;28;20189;-92
2021/07/30 05:50:58;;;;;;;10.87;5.60;;;19.70;60.20;;;;;;4996060;28;20215;-91
2021/07/30 05:53:24;;;;;;;11.37;5.20;;;19.60;59.90;;;;;;4993233;28;20590;-91
2021/07/30 05:55:50;;;;;;;20.50;6.83;;;19.50;60.20;;;;;;4994574;28;20182;-91
2021/07/30 05:58:16;;;;;;;8.43;5.20;;;19.50;60.50;;;;;;4994146;28;20414;-91
2021/07/30 06:00:41;;;;;;;10.07;4.93;;;19.50;60.80;;;;;;4994391;28;20274;-91
2021/07/30 06:03:08;;;;;;;7.20;5.23;;;19.60;60.70;;;;;;4993918;28;20458;-92
2021/07/30 06:05:33;;;;;;;5.80;5.03;;;19.70;60.50;;;;;;4994334;28;20191;-91
2021/07/30 06:07:59;;;;;;;15.13;5.73;;;19.70;60.30;;;;;;4994424;28;20180;-92
2021/07/30 06:10:25;;;;;;;12.23;4.78;;;19.70;60.60;;;;;;4994971;28;20179;-91
2021/07/30 06:12:52;;;;;;;10.05;5.07;;;19.60;60.50;;;;;;4996632;28;20265;-91
2021/07/30 06:15:23;;;;;;;8.15;4.57;;;19.70;60.80;;;;;;5000446;28;20179;-91
2021/07/30 06:17:52;;;;;;;8.60;5.20;;;19.70;60.70;;;;;;5000023;28;20176;-92
2021/07/30 06:20:19;;;;;;;5.63;4.15;;;19.80;60.60;;;;;;5002763;28;20175;-92
2021/07/30 06:22:45;;;;;;;6.05;4.60;;;19.90;60.40;;;;;;4996994;28;20254;-92
2021/07/30 06:25:11;;;;;;;6.78;4.80;;;20.10;60.20;;;;;;4993327;28;20176;-92
2021/07/30 06:27:37;;;;;;;12.90;5.13;;;20.10;59.80;;;;;;4994541;28;20214;-92
2021/07/30 06:30:06;;;;;;;8.30;5.18;;;20.00;59.60;;;;;;4994304;28;20175;-92
2021/07/30 06:32:32;;;;;;;8.57;4.20;;;20.20;60.00;;;;;;5006393;28;20290;-92
2021/07/30 06:34:57;;;;;;;13.53;5.30;;;20.20;59.50;;;;;;4994676;28;20293;-93
2021/07/30 06:37:23;;;;;;;8.87;5.00;;;20.50;59.40;;;;;;4993874;28;20741;-92
2021/07/30 06:39:49;;;;;;;7.70;4.57;;;20.40;58.80;;;;;;4996452;28;20520;-92
2021/07/30 06:42:15;;;;;;;7.50;4.30;;;20.40;58.80;;;;;;5000863;28;20206;-92
2021/07/30 06:44:40;;;;;;;5.17;4.00;;;20.50;59.10;;;;;;4999048;28;20179;-92
2021/07/30 06:47:06;;;;;;;7.43;3.77;;;20.50;58.70;;;;;;4995523;28;20661;-92
2021/07/30 06:49:37;;;;;;;4.87;4.00;;;20.50;58.80;;;;;;4994063;28;20183;-92
2021/07/30 06:52:07;;;;;;;6.70;4.50;;;20.60;58.90;;;;;;4993623;28;20669;-92
2021/07/30 06:54:34;;;;;;;7.50;4.07;;;20.60;58.50;;;;;;4994399;28;20658;-93
2021/07/30 06:57:03;;;;;;;7.68;4.38;;;20.70;58.50;;;;;;4993029;28;20238;-93
2021/07/30 06:59:29;;;;;;;5.97;4.45;;;20.80;58.40;;;;;;4993652;28;20548;-92
2021/07/30 07:01:55;;;;;;;9.10;4.40;;;20.80;58.30;;;;;;4993329;28;20286;-93
2021/07/30 07:04:22;;;;;;;9.43;4.30;;;20.70;57.90;;;;;;4993411;28;20905;-93
2021/07/30 07:06:48;;;;;;;5.43;3.67;;;20.80;57.90;;;;;;4995777;28;20187;-92
2021/07/30 07:09:15;;;;;;;7.57;4.50;;;20.60;57.40;;;;;;4998005;28;20213;-92
2021/07/30 07:11:41;;;;;;;7.13;4.40;;;20.80;57.70;;;;;;5002257;28;20292;-93
2021/07/30 07:14:07;;;;;;;9.43;3.90;;;20.80;57.40;;;;;;4997346;28;20715;-93
2021/07/30 07:16:33;;;;;;;8.73;4.00;;;20.90;57.10;;;;;;4997830;28;20206;-92
2021/07/30 07:18:58;;;;;;;6.67;3.63;;;21.10;56.90;;;;;;4998453;28;20414;-92
2021/07/30 07:21:24;;;;;;;5.53;3.70;;;21.40;56.10;;;;;;4998488;28;20410;-92
2021/07/30 07:23:51;;;;;;;9.43;4.30;;;21.50;55.70;;;;;;4999229;28;20199;-92
2021/07/30 07:26:17;;;;;;;5.47;3.63;;;21.60;55.10;;;;;;4999942;28;20417;-92
2021/07/30 07:28:44;;;;;;;6.23;3.40;;;21.50;55.10;;;;;;4997222;28;20858;-92
2021/07/30 07:31:10;;;;;;;5.13;3.30;;;21.40;55.10;;;;;;4996719;28;20478;-92
2021/07/30 07:33:37;;;;;;;4.40;2.90;;;21.60;55.40;;;;;;4996968;28;20466;-92
2021/07/30 07:36:03;;;;;;;7.03;3.70;;;21.60;54.80;;;;;;5003435;28;20410;-92
2021/07/30 07:38:29;;;;;;;3.53;2.80;;;21.60;54.80;;;;;;5006660;28;20438;-92
2021/07/30 07:40:54;;;;;;;12.03;5.43;;;21.90;54.60;;;;;;4997553;28;20431;-92
2021/07/30 07:43:20;;;;;;;7.77;3.73;;;22.00;54.60;;;;;;4996540;28;20203;-92
2021/07/30 07:45:46;;;;;;;13.20;3.70;;;22.10;53.90;;;;;;4997881;28;20183;-92
2021/07/30 07:48:12;;;;;;;6.80;3.17;;;22.60;53.50;;;;;;4996439;28;20253;-92
2021/07/30 07:50:37;;;;;;;7.17;3.47;;;22.80;52.90;;;;;;4996725;28;20426;-92
2021/07/30 07:53:15;;;;;;;6.10;3.77;;;23.10;51.60;;;;;;4997326;28;20216;-92
2021/07/30 07:55:41;;;;;;;6.90;3.03;;;23.20;51.00;;;;;;4997198;28;20264;-92
2021/07/30 07:58:08;;;;;;;5.00;2.80;;;23.30;50.10;;;;;;4997501;28;20426;-92
2021/07/30 08:00:34;;;;;;;9.27;3.40;;;23.30;49.60;;;;;;4996578;28;20502;-92
2021/07/30 08:02:59;;;;;;;4.63;3.13;;;23.40;49.60;;;;;;4996212;28;20442;-93
2021/07/30 08:05:25;;;;;;;4.50;2.83;;;23.40;50.30;;;;;;4999085;28;20431;-92
2021/07/30 08:07:51;;;;;;;3.83;2.97;;;23.80;49.60;;;;;;5004939;28;20179;-92
2021/07/30 08:10:16;;;;;;;6.00;2.93;;;24.20;49.30;;;;;;4997110;28;20294;-92
2021/07/30 08:12:42;;;;;;;8.50;3.07;;;24.40;48.60;;;;;;4995969;28;20218;-92
2021/07/30 08:15:08;;;;;;;4.40;3.07;;;24.70;48.30;;;;;;4996029;28;20215;-93
2021/07/30 08:17:35;;;;;;;5.77;2.90;;;24.90;47.70;;;;;;4997616;28;20180;-92
2021/07/30 08:20:02;;;;;;;3.50;3.20;;;24.90;46.70;;;;;;4995858;28;20441;-92
2021/07/30 08:22:27;;;;;;;4.73;3.07;;;24.90;46.70;;;;;;4995839;28;20921;-93
2021/07/30 08:24:53;;;;;;;5.83;3.10;;;25.00;46.90;;;;;;4996929;28;20433;-92
2021/07/30 08:27:19;;;;;;;3.63;2.53;;;24.60;46.40;;;;;;4996028;28;20442;-92
2021/07/30 08:29:45;;;;;;;4.67;3.00;;;24.80;47.40;;;;;;4996572;28;20217;-92
2021/07/30 08:32:11;;;;;;;3.93;2.83;;;24.90;47.00;;;;;;4997237;28;20203;-93
2021/07/30 08:34:40;;;;;;;11.03;2.70;;;24.90;47.10;;;;;;4996761;28;20504;-92
2021/07/30 08:37:10;;;;;;;3.63;2.53;;;24.50;46.70;;;;;;4996732;28;20418;-92
2021/07/30 08:39:36;;;;;;;7.93;3.27;;;24.50;47.60;;;;;;4996296;28;20549;-92
2021/07/30 08:42:03;;;;;;;2.73;2.53;;;24.80;47.50;;;;;;4999626;28;20452;-93
2021/07/30 08:44:29;;;;;;;5.70;3.07;;;25.10;47.00;;;;;;5003001;28;20423;-92
2021/07/30 08:46:55;;;;;;;3.23;2.90;;;25.40;46.30;;;;;;5002819;28;20445;-92
2021/07/30 08:49:21;;;;;;;3.73;2.83;;;25.50;44.80;;;;;;5002304;28;20505;-92
2021/07/30 08:51:58;;;;;;;5.60;3.23;;;25.00;44.70;;;;;;4997233;28;20520;-92
2021/07/30 08:54:24;;;;;;;3.90;2.73;;;25.00;45.30;;;;;;4995501;28;20218;-92
2021/07/30 08:56:50;;;;;;;6.07;3.90;;;24.60;46.00;;;;;;4995823;28;20430;-92
2021/07/30 08:59:16;;;;;;;5.03;3.00;;;24.20;46.20;;;;;;4995022;28;20259;-93
2021/07/30 09:01:51;;;;;;;4.30;2.40;;;24.50;46.80;;;;;;4995732;28;20449;-92
2021/07/30 09:04:30;;;;;;;5.90;3.70;;;24.40;46.60;;;;;;4996659;28;20410;-92
2021/07/30 09:06:57;;;;;;;8.47;3.60;;;24.50;46.90;;;;;;4994910;28;20422;-92
2021/07/30 09:09:23;;;;;;;3.27;2.97;;;24.90;47.20;;;;;;4995861;28;20553;-93
2021/07/30 09:11:54;;;;;;;4.17;3.27;;;25.00;46.30;;;;;;4994267;28;20525;-92
2021/07/30 09:14:38;;;;;;;5.27;3.70;;;25.00;46.10;;;;;;4994630;28;20466;-92
2021/07/30 09:17:05;;;;;;;8.20;3.20;;;24.80;46.40;;;;;;4996107;28;20905;-93
2021/07/30 09:19:32;;;;;;;4.67;3.60;;;25.20;46.30;;;;;;4994624;28;20418;-92
2021/07/30 09:22:06;;;;;;;10.87;3.47;;;25.10;45.70;;;;;;4995967;28;20541;-92
2021/07/30 09:24:43;;;;;;;3.90;3.43;;;24.80;45.80;;;;;;4994898;28;20796;-92
2021/07/30 09:27:12;;;;;;;6.90;3.97;;;24.80;47.00;;;;;;4995129;28;20422;-92
2021/07/30 09:29:40;;;;;;;4.17;3.70;;;24.90;45.90;;;;;;4994976;28;20454;-93
2021/07/30 09:32:11;;;;;;;6.07;4.50;;;25.20;45.70;;;;;;4993460;28;20442;-93
2021/07/30 09:34:43;;;;;;;4.30;3.77;;;25.40;44.80;;;;;;4995346;28;21036;-93
2021/07/30 09:37:17;;;;;;;4.30;3.10;;;25.70;44.40;;;;;;4994462;28;20407;-92
2021/07/30 09:39:47;;;;;;;8.67;4.63;;;25.60;43.60;;;;;;4994427;28;20441;-92
2021/07/30 09:42:14;;;;;;;4.80;3.70;;;25.60;44.30;;;;;;4994624;28;20430;-92
2021/07/30 09:44:53;;;;;;;3.60;3.30;;;25.90;43.80;;;;;;4995279;28;20440;-92
2021/07/30 09:47:21;;;;;;;5.50;3.30;;;25.80;43.30;;;;;;5003573;28;20422;-92
2021/07/30 09:49:56;;;;;;;4.60;3.60;;;25.50;44.10;;;;;;5014591;28;20490;-92
2021/07/30 09:52:22;;;;;;;4.70;3.63;;;25.40;44.50;;;;;;4993861;28;20441;-92
2021/07/30 09:54:58;;;;;;;3.20;3.00;;;25.40;44.80;;;;;;4993744;28;20486;-92
2021/07/30 09:57:29;;;;;;;4.20;3.50;;;25.20;44.20;;;;;;4994609;28;20433;-92
2021/07/30 09:59:59;;;;;;;6.20;3.80;;;25.50;44.30;;;;;;4996425;28;20418;-92
2021/07/30 10:02:30;;;;;;;4.50;3.10;;;25.40;43.80;;;;;;4993631;28;20521;-92
2021/07/30 10:04:57;;;;;;;8.10;3.53;;;25.40;44.40;;;;;;4993817;28;20461;-91
2021/07/30 10:07:24;;;;;;;4.03;3.73;;;25.00;44.60;;;;;;4993702;28;20426;-92
2021/07/30 10:10:07;;;;;;;3.93;3.30;;;24.60;45.50;;;;;;4994620;28;20429;-92
2021/07/30 10:12:39;;;;;;;3.80;3.50;;;24.60;46.30;;;;;;4994095;28;20445;-92
2021/07/30 10:15:07;;;;;;;3.63;2.87;;;25.20;46.20;;;;;;4993208;28;20458;-92
2021/07/30 10:17:34;;;;;;;6.80;3.10;;;25.60;45.50;;;;;;4993516;28;20423;-92
2021/07/30 10:20:06;;;;;;;5.13;3.83;;;25.80;44.50;;;;;;4994373;28;20926;-92
2021/07/30 10:22:56;;;;;;;5.27;3.83;;;26.10;44.00;;;;;;4993057;28;20529;-92
2021/07/30 10:25:32;;;;;;;6.33;3.70;;;26.10;43.10;;;;;;4993757;28;20782;-92
2021/07/30 10:28:18;;;;;;;10.23;3.70;;;26.30;42.80;;;;;;4993245;28;20403;-93
2021/07/30 10:31:05;;;;;;;6.33;4.03;;;26.60;43.00;;;;;;4993341;28;20492;-92
2021/07/30 10:33:31;;;;;;;4.00;3.40;;;26.60;42.00;;;;;;4992576;28;20477;-92
2021/07/30 10:36:03;;;;;;;6.70;3.57;;;26.80;41.40;;;;;;4993441;28;20428;-92
2021/07/30 10:38:29;;;;;;;5.60;4.03;;;26.90;41.50;;;;;;4993947;28;20174;-93
2021/07/30 10:40:58;;;;;;;4.90;3.57;;;27.00;42.20;;;;;;4993140;28;20941;-93
2021/07/30 10:43:27;;;;;;;5.90;3.47;;;27.20;41.50;;;;;;4992935;28;20762;-93
2021/07/30 10:46:08;;;;;;;7.13;4.20;;;27.30;40.80;;;;;;4993794;28;20453;-93
2021/07/30 10:48:41;;;;;;;5.90;3.43;;;27.70;40.80;;;;;;4993150;28;20434;-93
2021/07/30 10:51:19;;;;;;;8.73;4.50;;;28.00;40.40;;;;;;4993466;28;20513;-93
2021/07/30 10:53:59;;;;;;;7.60;3.93;;;28.10;40.20;;;;;;5009036;28;20482;-92
2021/07/30 10:56:31;;;;;;;3.50;3.20;;;27.80;38.90;;;;;;4997217;28;20433;-92
2021/07/30 10:58:59;;;;;;;12.60;4.20;;;28.00;41.00;;;;;;4993188;28;20425;-93
2021/07/30 11:01:28;;;;;;;4.33;3.60;;;28.00;40.30;;;;;;4992652;28;20941;-92
2021/07/30 11:03:54;;;;;;;10.83;4.00;;;28.30;39.40;;;;;;4993092;28;20805;-92
2021/07/30 11:06:24;;;;;;;4.93;3.30;;;27.60;39.50;;;;;;4993081;28;20430;-92
2021/07/30 11:08:59;;;;;;;5.80;3.20;;;27.60;39.90;;;;;;4992779;28;20465;-93
2021/07/30 11:11:40;;;;;;;9.13;2.90;;;27.60;40.00;;;;;;4993219;28;20941;-92
2021/07/30 11:14:13;;;;;;;3.60;2.80;;;27.70;40.50;;;;;;4992746;28;20576;-92
2021/07/30 11:16:41;;;;;;;3.30;2.80;;;27.80;40.00;;;;;;4993473;28;20419;-92
2021/07/30 11:19:07;;;;;;;5.77;2.63;;;28.20;40.20;;;;;;4992952;28;20415;-92
2021/07/30 11:21:33;;;;;;;3.73;3.43;;;28.20;39.50;;;;;;4993092;28;20474;-92
2021/07/30 11:24:00;;;;;;;3.83;3.47;;;28.10;39.10;;;;;;4993259;28;20450;-92
2021/07/30 11:26:27;;;;;;;3.50;3.20;;;27.70;40.10;;;;;;4992559;28;20509;-93
2021/07/30 11:29:07;;;;;;;5.30;3.03;;;27.90;40.00;;;;;;4993237;28;20793;-92
2021/07/30 11:31:37;;;;;;;6.30;3.40;;;27.90;39.70;;;;;;4992340;28;20501;-93
2021/07/30 11:34:11;;;;;;;3.70;2.93;;;26.80;41.10;;;;;;4992252;28;20550;-92
2021/07/30 11:36:37;;;;;;;6.63;3.37;;;26.30;42.80;;;;;;4992832;28;20428;-92
2021/07/30 11:39:03;;;;;;;5.67;3.00;;;26.20;44.10;;;;;;4992967;28;20420;-93
2021/07/30 11:41:28;;;;;;;6.10;3.50;;;25.90;44.40;;;;;;4992434;28;20173;-92
2021/07/30 11:44:08;;;;;;;6.60;3.47;;;26.00;45.30;;;;;;4992674;28;20706;-93
2021/07/30 11:46:34;;;;;;;4.37;2.93;;;26.20;44.60;;;;;;4993130;28;20548;-92
2021/07/30 11:49:07;;;;;;;5.20;3.37;;;26.30;44.40;;;;;;4992662;28;20458;-92
2021/07/30 11:51:38;;;;;;;8.60;3.80;;;26.40;44.50;;;;;;4995821;28;20426;-92
2021/07/30 11:54:04;;;;;;;5.67;3.40;;;26.40;44.30;;;;;;4992396;28;20454;-92
2021/07/30 11:56:41;;;;;;;3.43;3.10;;;26.40;44.60;;;;;;4995969;28;20769;-92
2021/07/30 11:59:07;;;;;;;5.73;3.00;;;26.30;44.90;;;;;;5003819;28;20184;-93
2021/07/30 12:01:33;;;;;;;8.30;3.33;;;26.10;45.40;;;;;;4977507;28;20419;-92
2021/07/30 12:04:05;;;;;;;4.60;3.70;;;26.00;47.20;;;;;;4992610;28;20656;-92
2021/07/30 12:06:35;;;;;;;6.13;3.03;;;25.70;49.00;;;;;;4976437;28;20176;-93
2021/07/30 12:09:01;;;;;;;10.77;3.57;;;25.60;49.10;;;;;;4976171;28;20429;-92
2021/07/30 12:11:27;;;;;;;14.63;5.67;;;25.20;49.30;;;;;;4975959;28;20498;-93
2021/07/30 12:13:54;;;;;;;9.60;5.03;;;24.90;51.00;;;;;;4976023;28;20223;-92
2021/07/30 12:16:20;;;;;;;4.70;3.93;;;24.70;52.80;;;;;;4983670;28;20407;-93
2021/07/30 12:18:46;;;;;;;12.63;5.50;;;24.30;54.20;;;;;;4986580;28;20415;-92
2021/07/30 12:21:12;;;;;;;6.47;5.07;;;24.20;55.70;;;;;;4976132;28;20755;-91
2021/07/30 12:23:37;;;;;;;6.47;4.23;;;24.10;55.90;;;;;;4976548;28;20204;-93
2021/07/30 12:26:03;;;;;;;6.93;4.53;;;24.20;55.60;;;;;;4976438;28;20442;-92
2021/07/30 12:28:42;;;;;;;5.77;3.70;;;24.30;55.50;;;;;;4976508;28;20261;-93
2021/07/30 12:31:14;;;;;;;4.30;3.10;;;24.60;55.20;;;;;;4992806;28;20175;-93
2021/07/30 12:33:40;;;;;;;8.27;4.30;;;24.90;54.60;;;;;;4996739;28;20473;-93
2021/07/30 12:36:08;;;;;;;6.40;3.60;;;25.00;53.30;;;;;;4997187;28;20411;-92
2021/07/30 12:38:52;;;;;;;4.80;3.47;;;25.20;52.70;;;;;;4997073;28;20430;-92
2021/07/30 12:41:25;;;;;;;5.70;3.77;;;25.30;52.20;;;;;;4995849;28;20414;-93
2021/07/30 12:43:54;;;;;;;7.37;3.43;;;25.40;52.10;;;;;;4997436;28;20407;-93
2021/07/30 12:46:42;;;;;;;4.20;3.70;;;25.60;51.90;;;;;;4998752;28;20427;-92
2021/07/30 12:49:11;;;;;;;10.03;3.57;;;26.00;50.90;;;;;;5010583;28;20442;-92